createdAt,value
2019-04-29T00:01:01.071Z,11.71
2019-04-29T00:02:10.771Z,11.73
2019-04-29T00:03:19.055Z,11.70
2019-04-29T00:04:27.154Z,11.73
2019-04-29T00:05:35.236Z,11.71
2019-04-29T00:06:43.215Z,11.73
2019-04-29T00:07:51.311Z,11.73
2019-04-29T00:08:59.611Z,11.72
2019-04-29T00:10:09.402Z,11.73
2019-04-29T00:11:17.444Z,11.74
2019-04-29T00:12:26.097Z,11.75
2019-04-29T00:13:36.102Z,11.77
2019-04-29T00:14:45.562Z,11.80
2019-04-29T00:16:11.334Z,11.77
2019-04-29T00:17:20.731Z,11.81
2019-04-29T00:18:46.573Z,11.85
2019-04-29T00:19:54.365Z,11.85
2019-04-29T00:21:02.460Z,11.85
2019-04-29T00:22:10.663Z,11.85
2019-04-29T00:23:18.945Z,11.87
2019-04-29T00:24:26.806Z,11.87
2019-04-29T00:25:35.170Z,11.88
2019-04-29T00:26:43.442Z,11.89
2019-04-29T00:27:51.486Z,11.91
2019-04-29T00:28:59.464Z,11.90
2019-04-29T00:30:12.464Z,11.90
2019-04-29T00:31:20.541Z,11.93
2019-04-29T00:32:28.755Z,11.95
2019-04-29T00:33:36.553Z,11.94
2019-04-29T00:34:44.419Z,11.96
2019-04-29T00:35:52.312Z,11.96
2019-04-29T00:37:04.879Z,11.94
2019-04-29T00:38:17.259Z,11.95
2019-04-29T00:39:42.779Z,11.94
2019-04-29T00:41:08.797Z,11.96
2019-04-29T00:42:19.143Z,11.97
2019-04-29T00:43:31.936Z,11.94
2019-04-29T00:44:40.084Z,11.96
2019-04-29T00:45:48.136Z,11.96
2019-04-29T00:46:55.926Z,11.97
2019-04-29T00:48:03.982Z,11.96
2019-04-29T00:49:12.065Z,11.98
2019-04-29T00:50:20.381Z,11.99
2019-04-29T00:51:28.459Z,11.98
2019-04-29T00:52:36.325Z,11.97
2019-04-29T00:53:44.977Z,11.98
2019-04-29T00:54:54.514Z,11.97
2019-04-29T00:56:03.842Z,11.98
2019-04-29T00:57:12.200Z,11.99
2019-04-29T00:58:20.065Z,11.99
2019-04-29T00:59:27.823Z,11.99
2019-04-29T01:00:38.301Z,11.97
2019-04-29T01:01:46.674Z,11.99
2019-04-29T01:02:54.748Z,11.99
2019-04-29T01:04:02.580Z,11.99
2019-04-29T01:05:10.823Z,12.00
2019-04-29T01:06:18.732Z,12.01
2019-04-29T01:07:26.573Z,12.02
2019-04-29T01:08:34.853Z,12.00
2019-04-29T01:09:42.717Z,12.01
2019-04-29T01:10:51.146Z,12.01
2019-04-29T01:11:59.102Z,12.03
2019-04-29T01:13:06.959Z,12.03
2019-04-29T01:14:14.805Z,12.04
2019-04-29T01:15:22.773Z,12.06
2019-04-29T01:16:30.884Z,12.07
2019-04-29T01:17:38.952Z,12.09
2019-04-29T01:18:46.838Z,12.11
2019-04-29T01:19:54.628Z,12.13
2019-04-29T01:21:02.795Z,12.16
2019-04-29T01:22:10.717Z,12.19
2019-04-29T01:23:18.601Z,12.23
2019-04-29T01:24:26.534Z,12.25
2019-04-29T01:25:34.643Z,12.28
2019-04-29T01:26:54.259Z,12.30
2019-04-29T01:28:13.733Z,12.32
2019-04-29T01:29:29.281Z,12.35
2019-04-29T01:30:52.945Z,12.37
2019-04-29T01:32:01.045Z,12.38
2019-04-29T01:33:08.850Z,12.38
2019-04-29T01:34:21.335Z,12.38
2019-04-29T01:35:29.504Z,12.38
2019-04-29T01:36:41.846Z,12.38
2019-04-29T01:37:50.030Z,12.37
2019-04-29T01:38:59.583Z,12.37
2019-04-29T01:40:22.397Z,12.35
2019-04-29T01:41:41.245Z,12.35
2019-04-29T01:42:49.169Z,12.32
2019-04-29T01:44:01.693Z,12.27
2019-04-29T01:45:09.938Z,12.29
2019-04-29T01:46:17.879Z,12.27
2019-04-29T01:47:26.029Z,12.26
2019-04-29T01:48:33.919Z,12.25
2019-04-29T01:49:41.916Z,12.26
2019-04-29T01:50:49.719Z,12.25
2019-04-29T01:51:57.472Z,12.23
2019-04-29T01:53:05.845Z,12.22
2019-04-29T01:54:13.890Z,12.24
2019-04-29T01:55:21.750Z,12.23
2019-04-29T01:56:29.492Z,12.25
2019-04-29T01:57:37.272Z,12.23
2019-04-29T01:58:45.513Z,12.23
2019-04-29T01:59:53.762Z,12.23
2019-04-29T02:01:01.676Z,12.22
2019-04-29T02:02:09.773Z,12.20
2019-04-29T02:03:18.746Z,12.20
2019-04-29T02:04:27.459Z,12.20
2019-04-29T02:05:35.375Z,12.20
2019-04-29T02:06:43.288Z,12.20
2019-04-29T02:07:51.328Z,12.21
2019-04-29T02:08:59.164Z,12.22
2019-04-29T02:10:09.478Z,12.22
2019-04-29T02:11:17.443Z,12.23
2019-04-29T02:12:25.488Z,12.22
2019-04-29T02:13:33.498Z,12.21
2019-04-29T02:14:41.394Z,12.20
2019-04-29T02:15:49.377Z,12.21
2019-04-29T02:16:57.283Z,12.20
2019-04-29T02:18:05.269Z,12.21
2019-04-29T02:19:13.469Z,12.22
2019-04-29T02:20:21.545Z,12.22
2019-04-29T02:21:29.857Z,12.21
2019-04-29T02:22:39.332Z,12.22
2019-04-29T02:23:49.039Z,12.23
2019-04-29T02:24:58.589Z,12.22
2019-04-29T02:26:07.502Z,12.23
2019-04-29T02:27:15.310Z,12.23
2019-04-29T02:28:23.424Z,12.22
2019-04-29T02:29:31.204Z,12.22
2019-04-29T02:30:46.118Z,12.22
2019-04-29T02:31:54.562Z,12.23
2019-04-29T02:33:02.457Z,12.23
2019-04-29T02:34:10.724Z,12.24
2019-04-29T02:35:18.508Z,12.24
2019-04-29T02:36:29.950Z,12.22
2019-04-29T02:37:37.732Z,12.22
2019-04-29T02:39:03.196Z,12.22
2019-04-29T02:40:21.669Z,12.23
2019-04-29T02:41:40.157Z,12.22
2019-04-29T02:42:47.744Z,12.23
2019-04-29T02:43:57.419Z,12.23
2019-04-29T02:45:13.826Z,12.22
2019-04-29T02:46:21.666Z,12.22
2019-04-29T02:47:29.583Z,12.21
2019-04-29T02:48:37.532Z,12.21
2019-04-29T02:49:45.499Z,12.19
2019-04-29T02:50:55.950Z,12.21
2019-04-29T02:52:03.869Z,12.19
2019-04-29T02:53:11.813Z,12.17
2019-04-29T02:54:20.139Z,12.18
2019-04-29T02:55:29.593Z,12.17
2019-04-29T02:56:37.896Z,12.18
2019-04-29T02:58:02.334Z,12.19
2019-04-29T02:59:11.977Z,12.18
2019-04-29T03:00:37.972Z,12.20
2019-04-29T03:01:54.328Z,12.22
2019-04-29T03:03:03.889Z,12.23
2019-04-29T03:04:13.421Z,12.20
2019-04-29T03:05:25.858Z,12.19
2019-04-29T03:06:33.869Z,12.19
2019-04-29T03:07:42.446Z,12.21
2019-04-29T03:08:50.703Z,12.18
2019-04-29T03:09:58.617Z,12.17
2019-04-29T03:11:06.755Z,12.17
2019-04-29T03:12:14.723Z,12.16
2019-04-29T03:13:22.551Z,12.15
2019-04-29T03:14:32.155Z,12.17
2019-04-29T03:15:43.143Z,12.15
2019-04-29T03:16:51.024Z,12.17
2019-04-29T03:17:59.583Z,12.18
2019-04-29T03:19:09.354Z,12.16
2019-04-29T03:20:18.923Z,12.15
2019-04-29T03:21:47.681Z,12.16
2019-04-29T03:23:09.907Z,12.16
2019-04-29T03:24:17.960Z,12.14
2019-04-29T03:25:25.995Z,12.14
2019-04-29T03:26:34.228Z,12.13
2019-04-29T03:27:42.241Z,12.12
2019-04-29T03:28:50.329Z,12.15
2019-04-29T03:29:58.433Z,12.13
2019-04-29T03:31:06.632Z,12.12
2019-04-29T03:32:14.519Z,12.12
2019-04-29T03:33:22.610Z,12.12
2019-04-29T03:34:30.727Z,12.14
2019-04-29T03:35:38.745Z,12.14
2019-04-29T03:36:46.602Z,12.11
2019-04-29T03:37:54.669Z,12.12
2019-04-29T03:39:03.377Z,12.11
2019-04-29T03:40:11.580Z,12.09
2019-04-29T03:41:19.896Z,12.11
2019-04-29T03:42:28.963Z,12.10
2019-04-29T03:43:36.875Z,12.10
2019-04-29T03:44:44.765Z,12.12
2019-04-29T03:45:52.780Z,12.11
2019-04-29T03:47:01.143Z,12.09
2019-04-29T03:48:09.195Z,12.09
2019-04-29T03:49:17.104Z,12.11
2019-04-29T03:50:25.057Z,12.11
2019-04-29T03:51:33.177Z,12.10
2019-04-29T03:52:40.930Z,12.11
2019-04-29T03:53:48.724Z,12.11
2019-04-29T03:54:56.927Z,12.11
2019-04-29T03:56:04.972Z,12.11
2019-04-29T03:57:14.558Z,12.10
2019-04-29T03:58:22.459Z,12.10
2019-04-29T03:59:30.173Z,12.13
2019-04-29T04:00:38.164Z,12.13
2019-04-29T04:01:47.755Z,12.14
2019-04-29T04:03:00.203Z,12.17
2019-04-29T04:04:09.775Z,12.14
2019-04-29T04:05:29.676Z,12.16
2019-04-29T04:06:39.029Z,12.17
2019-04-29T04:08:06.803Z,12.18
2019-04-29T04:09:28.161Z,12.18
2019-04-29T04:10:36.134Z,12.16
2019-04-29T04:11:44.728Z,12.16
2019-04-29T04:12:52.662Z,12.17
2019-04-29T04:14:00.726Z,12.18
2019-04-29T04:15:09.063Z,12.18
2019-04-29T04:16:18.593Z,12.17
2019-04-29T04:17:26.241Z,12.20
2019-04-29T04:18:35.985Z,12.19
2019-04-29T04:19:43.928Z,12.20
2019-04-29T04:20:51.947Z,12.20
2019-04-29T04:22:00.216Z,12.21
2019-04-29T04:23:08.200Z,12.22
2019-04-29T04:24:15.986Z,12.21
2019-04-29T04:25:23.744Z,12.22
2019-04-29T04:26:31.505Z,12.22
2019-04-29T04:27:39.486Z,12.23
2019-04-29T04:28:47.403Z,12.24
2019-04-29T04:29:56.226Z,12.24
2019-04-29T04:31:06.757Z,12.24
2019-04-29T04:32:14.161Z,12.26
2019-04-29T04:33:22.169Z,12.26
2019-04-29T04:34:30.390Z,12.26
2019-04-29T04:35:38.803Z,12.27
2019-04-29T04:36:46.930Z,12.27
2019-04-29T04:37:54.970Z,12.29
2019-04-29T04:39:04.535Z,12.29
2019-04-29T04:40:15.018Z,12.30
2019-04-29T04:41:23.072Z,12.31
2019-04-29T04:42:30.929Z,12.31
2019-04-29T04:43:38.852Z,12.34
2019-04-29T04:44:49.881Z,12.32
2019-04-29T04:45:57.994Z,12.34
2019-04-29T04:47:06.199Z,12.35
2019-04-29T04:48:14.434Z,12.37
2019-04-29T04:49:22.206Z,12.39
2019-04-29T04:50:30.409Z,12.39
2019-04-29T04:51:38.240Z,12.39
2019-04-29T04:52:46.273Z,12.41
2019-04-29T04:53:54.469Z,12.42
2019-04-29T04:55:02.554Z,12.41
2019-04-29T04:56:10.580Z,12.41
2019-04-29T04:57:18.763Z,12.39
2019-04-29T04:58:27.163Z,12.40
2019-04-29T04:59:35.438Z,12.39
2019-04-29T05:00:43.513Z,12.39
2019-04-29T05:01:51.331Z,12.38
2019-04-29T05:02:59.423Z,12.38
2019-04-29T05:04:07.432Z,12.37
2019-04-29T05:05:15.674Z,12.38
2019-04-29T05:06:23.637Z,12.37
2019-04-29T05:07:31.408Z,12.37
2019-04-29T05:08:39.428Z,12.36
2019-04-29T05:09:47.383Z,12.35
2019-04-29T05:10:55.638Z,12.33
2019-04-29T05:12:03.744Z,12.32
2019-04-29T05:13:11.696Z,12.31
2019-04-29T05:14:19.654Z,12.32
2019-04-29T05:15:27.609Z,12.34
2019-04-29T05:16:35.630Z,12.35
2019-04-29T05:17:43.704Z,12.34
2019-04-29T05:18:52.111Z,12.34
2019-04-29T05:20:00.313Z,12.35
2019-04-29T05:21:08.418Z,12.35
2019-04-29T05:22:16.858Z,12.34
2019-04-29T05:23:24.766Z,12.31
2019-04-29T05:24:32.870Z,12.34
2019-04-29T05:25:41.002Z,12.34
2019-04-29T05:26:49.276Z,12.33
2019-04-29T05:27:57.399Z,12.33
2019-04-29T05:29:05.640Z,12.34
2019-04-29T05:30:13.957Z,12.26
2019-04-29T05:31:21.889Z,12.32
2019-04-29T05:32:29.855Z,12.32
2019-04-29T05:33:37.977Z,12.35
2019-04-29T05:34:48.262Z,12.34
2019-04-29T05:36:06.773Z,12.33
2019-04-29T05:37:31.764Z,12.34
2019-04-29T05:38:41.904Z,12.34
2019-04-29T05:39:50.164Z,12.32
2019-04-29T05:40:58.358Z,12.32
2019-04-29T05:42:07.634Z,12.32
2019-04-29T05:43:18.140Z,12.31
2019-04-29T05:44:33.974Z,12.36
2019-04-29T05:46:00.007Z,12.38
2019-04-29T05:47:17.828Z,12.37
2019-04-29T05:48:27.679Z,12.37
2019-04-29T05:49:37.407Z,12.38
2019-04-29T05:50:52.050Z,12.39
2019-04-29T05:52:03.813Z,12.41
2019-04-29T05:53:19.385Z,12.40
2019-04-29T05:54:31.773Z,12.41
2019-04-29T05:55:38.694Z,12.41
2019-04-29T05:56:46.882Z,12.42
2019-04-29T05:58:02.923Z,12.43
2019-04-29T05:59:08.477Z,12.46
2019-04-29T06:00:22.883Z,12.45
2019-04-29T06:01:29.848Z,12.45
2019-04-29T06:02:38.874Z,12.46
2019-04-29T06:03:47.037Z,12.45
2019-04-29T06:04:55.141Z,12.47
2019-04-29T06:06:03.351Z,12.50
2019-04-29T06:07:11.857Z,12.49
2019-04-29T06:08:20.042Z,12.49
2019-04-29T06:09:28.357Z,12.52
2019-04-29T06:10:36.923Z,12.54
2019-04-29T06:11:45.139Z,12.53
2019-04-29T06:12:53.168Z,12.54
2019-04-29T06:14:01.514Z,12.56
2019-04-29T06:15:10.406Z,12.58
2019-04-29T06:16:20.864Z,12.56
2019-04-29T06:17:28.407Z,12.55
2019-04-29T06:18:36.357Z,12.56
2019-04-29T06:19:44.462Z,12.57
2019-04-29T06:20:52.688Z,12.56
2019-04-29T06:22:03.787Z,12.54
2019-04-29T06:23:10.532Z,12.56
2019-04-29T06:24:18.371Z,12.55
2019-04-29T06:25:26.314Z,12.56
2019-04-29T06:26:34.252Z,12.58
2019-04-29T06:27:42.189Z,12.56
2019-04-29T06:28:51.607Z,12.58
2019-04-29T06:30:03.071Z,12.60
2019-04-29T06:31:09.741Z,12.61
2019-04-29T06:32:20.173Z,12.60
2019-04-29T06:33:29.060Z,12.65
2019-04-29T06:34:40.033Z,12.67
2019-04-29T06:35:48.956Z,12.70
2019-04-29T06:36:57.088Z,12.71
2019-04-29T06:38:05.321Z,12.69
2019-04-29T06:39:13.751Z,12.69
2019-04-29T06:40:22.513Z,12.72
2019-04-29T06:41:30.830Z,12.73
2019-04-29T06:42:38.810Z,12.75
2019-04-29T06:43:47.017Z,12.73
2019-04-29T06:44:55.017Z,12.72
2019-04-29T06:46:03.121Z,12.75
2019-04-29T06:47:11.057Z,12.77
2019-04-29T06:48:19.003Z,12.80
2019-04-29T06:49:26.738Z,12.82
2019-04-29T06:50:35.067Z,12.83
2019-04-29T06:51:43.332Z,12.86
2019-04-29T06:52:51.478Z,12.86
2019-04-29T06:53:59.366Z,12.86
2019-04-29T06:55:07.758Z,12.88
2019-04-29T06:56:15.811Z,12.88
2019-04-29T06:57:23.657Z,12.91
2019-04-29T06:58:32.472Z,12.92
2019-04-29T06:59:43.075Z,12.94
2019-04-29T07:00:55.731Z,12.96
2019-04-29T07:02:01.459Z,12.93
2019-04-29T07:03:09.591Z,12.95
2019-04-29T07:04:17.857Z,12.94
2019-04-29T07:05:26.176Z,12.92
2019-04-29T07:06:34.289Z,12.92
2019-04-29T07:07:42.389Z,12.91
2019-04-29T07:08:50.591Z,12.93
2019-04-29T07:09:58.784Z,12.91
2019-04-29T07:11:06.819Z,12.93
2019-04-29T07:12:15.070Z,12.93
2019-04-29T07:13:24.586Z,12.94
2019-04-29T07:14:38.152Z,12.97
2019-04-29T07:15:43.568Z,12.99
2019-04-29T07:16:52.661Z,13.00
2019-04-29T07:18:00.565Z,13.04
2019-04-29T07:19:08.837Z,13.06
2019-04-29T07:20:16.855Z,13.09
2019-04-29T07:21:24.844Z,13.12
2019-04-29T07:22:32.544Z,13.14
2019-04-29T07:23:40.832Z,13.13
2019-04-29T07:24:48.823Z,13.16
2019-04-29T07:25:56.828Z,13.16
2019-04-29T07:27:05.432Z,13.17
2019-04-29T07:28:13.771Z,13.08
2019-04-29T07:29:29.722Z,13.13
2019-04-29T07:30:33.214Z,13.13
2019-04-29T07:31:41.408Z,13.13
2019-04-29T07:32:49.365Z,13.11
2019-04-29T07:33:57.929Z,13.11
2019-04-29T07:35:09.904Z,13.12
2019-04-29T07:36:18.707Z,13.14
2019-04-29T07:37:29.693Z,13.13
2019-04-29T07:38:41.545Z,13.13
2019-04-29T07:39:47.453Z,13.14
2019-04-29T07:40:55.651Z,13.13
2019-04-29T07:42:03.594Z,13.13
2019-04-29T07:43:11.724Z,13.14
2019-04-29T07:44:20.006Z,13.17
2019-04-29T07:45:46.014Z,13.18
2019-04-29T07:46:59.149Z,13.20
2019-04-29T07:48:06.309Z,13.21
2019-04-29T07:49:17.162Z,13.22
2019-04-29T07:50:26.752Z,13.24
2019-04-29T07:51:39.400Z,13.27
2019-04-29T07:52:45.588Z,13.28
2019-04-29T07:53:54.421Z,13.31
2019-04-29T07:55:02.268Z,13.32
2019-04-29T07:56:10.324Z,13.31
2019-04-29T07:57:18.961Z,13.34
2019-04-29T07:58:27.391Z,13.36
2019-04-29T07:59:38.511Z,13.37
2019-04-29T08:00:48.805Z,13.37
2019-04-29T08:01:59.908Z,13.39
2019-04-29T08:03:08.402Z,13.39
2019-04-29T08:04:16.334Z,13.40
2019-04-29T08:05:24.181Z,13.39
2019-04-29T08:06:33.703Z,13.39
2019-04-29T08:07:42.909Z,13.42
2019-04-29T08:08:55.064Z,13.43
2019-04-29T08:10:03.566Z,13.43
2019-04-29T08:11:12.708Z,13.43
2019-04-29T08:12:23.344Z,13.41
2019-04-29T08:13:33.412Z,13.40
2019-04-29T08:14:41.975Z,13.41
2019-04-29T08:15:49.748Z,13.41
2019-04-29T08:16:57.923Z,13.39
2019-04-29T08:18:07.013Z,13.42
2019-04-29T08:19:15.643Z,13.43
2019-04-29T08:20:24.307Z,13.43
2019-04-29T08:21:32.329Z,13.43
2019-04-29T08:22:40.220Z,13.43
2019-04-29T08:23:50.508Z,13.42
2019-04-29T08:24:58.599Z,13.46
2019-04-29T08:26:06.592Z,13.46
2019-04-29T08:27:14.709Z,13.47
2019-04-29T08:28:23.448Z,13.48
2019-04-29T08:29:35.845Z,13.47
2019-04-29T08:30:41.932Z,13.49
2019-04-29T08:31:51.890Z,13.49
2019-04-29T08:33:00.685Z,13.48
2019-04-29T08:34:08.822Z,13.50
2019-04-29T08:35:16.813Z,13.49
2019-04-29T08:36:25.287Z,13.51
2019-04-29T08:37:33.383Z,13.55
2019-04-29T08:38:41.583Z,13.56
2019-04-29T08:40:08.280Z,13.56
2019-04-29T08:40:59.558Z,13.59
2019-04-29T08:42:09.418Z,13.61
2019-04-29T08:43:20.687Z,13.64
2019-04-29T08:44:29.656Z,13.66
2019-04-29T08:45:48.609Z,13.69
2019-04-29T08:47:01.534Z,13.71
2019-04-29T08:48:09.652Z,13.73
2019-04-29T08:49:17.686Z,13.76
2019-04-29T08:50:25.694Z,13.75
2019-04-29T08:51:34.014Z,13.76
2019-04-29T08:52:41.932Z,13.77
2019-04-29T08:53:50.306Z,13.79
2019-04-29T08:54:58.152Z,13.80
2019-04-29T08:56:10.113Z,13.80
2019-04-29T08:57:16.054Z,13.84
2019-04-29T08:58:24.230Z,13.87
2019-04-29T08:59:32.239Z,13.87
2019-04-29T09:00:40.489Z,13.89
2019-04-29T09:01:48.467Z,13.91
2019-04-29T09:02:56.722Z,13.94
2019-04-29T09:04:05.014Z,13.95
2019-04-29T09:05:14.451Z,13.97
2019-04-29T09:06:22.315Z,13.97
2019-04-29T09:07:30.529Z,14.00
2019-04-29T09:08:53.517Z,14.01
2019-04-29T09:09:48.577Z,14.01
2019-04-29T09:10:57.074Z,14.01
2019-04-29T09:12:05.168Z,13.99
2019-04-29T09:13:13.106Z,14.00
2019-04-29T09:14:21.272Z,14.01
2019-04-29T09:15:29.202Z,14.01
2019-04-29T09:16:37.367Z,14.03
2019-04-29T09:17:45.523Z,14.06
2019-04-29T09:18:53.765Z,14.08
2019-04-29T09:20:01.821Z,14.13
2019-04-29T09:21:09.853Z,14.13
2019-04-29T09:22:19.509Z,14.14
2019-04-29T09:23:35.158Z,14.15
2019-04-29T09:24:48.136Z,14.10
2019-04-29T09:26:03.304Z,14.11
2019-04-29T09:27:16.172Z,14.10
2019-04-29T09:28:28.141Z,14.07
2019-04-29T09:29:34.744Z,14.06
2019-04-29T09:30:43.022Z,14.07
2019-04-29T09:31:51.029Z,14.06
2019-04-29T09:32:59.213Z,14.03
2019-04-29T09:34:07.158Z,14.04
2019-04-29T09:35:15.809Z,14.06
2019-04-29T09:36:23.776Z,14.04
2019-04-29T09:37:31.685Z,14.03
2019-04-29T09:38:39.971Z,14.06
2019-04-29T09:39:48.171Z,14.05
2019-04-29T09:41:01.621Z,14.02
2019-04-29T09:42:13.120Z,14.04
2019-04-29T09:43:32.927Z,14.02
2019-04-29T09:44:44.622Z,14.02
2019-04-29T09:45:58.628Z,13.99
2019-04-29T09:47:08.464Z,13.99
2019-04-29T09:48:15.604Z,13.97
2019-04-29T09:49:23.972Z,13.95
2019-04-29T09:50:34.305Z,13.96
2019-04-29T09:51:41.863Z,13.94
2019-04-29T09:52:50.012Z,13.91
2019-04-29T09:53:58.009Z,13.89
2019-04-29T09:55:06.917Z,13.85
2019-04-29T09:56:14.671Z,13.86
2019-04-29T09:57:23.046Z,13.86
2019-04-29T09:58:31.108Z,13.85
2019-04-29T09:59:47.292Z,13.85
2019-04-29T10:00:59.616Z,13.85
2019-04-29T10:02:26.157Z,13.87
2019-04-29T10:03:33.702Z,13.89
2019-04-29T10:04:56.512Z,13.90
2019-04-29T10:06:14.193Z,13.91
2019-04-29T10:07:22.451Z,13.92
2019-04-29T10:08:30.442Z,13.90
2019-04-29T10:09:38.303Z,13.89
2019-04-29T10:10:46.677Z,13.88
2019-04-29T10:11:54.621Z,13.86
2019-04-29T10:13:02.596Z,13.85
2019-04-29T10:14:10.846Z,13.87
2019-04-29T10:15:20.818Z,13.85
2019-04-29T10:16:35.971Z,13.86
2019-04-29T10:17:45.944Z,13.84
2019-04-29T10:19:08.146Z,13.80
2019-04-29T10:20:17.862Z,13.81
2019-04-29T10:21:26.144Z,13.78
2019-04-29T10:22:35.072Z,13.80
2019-04-29T10:23:43.369Z,13.82
2019-04-29T10:24:51.691Z,13.82
2019-04-29T10:26:00.013Z,13.79
2019-04-29T10:27:08.481Z,13.80
2019-04-29T10:28:16.577Z,13.76
2019-04-29T10:29:26.158Z,13.76
2019-04-29T10:30:34.205Z,13.77
2019-04-29T10:31:42.353Z,13.76
2019-04-29T10:32:50.959Z,13.76
2019-04-29T10:33:59.157Z,13.78
2019-04-29T10:35:10.639Z,13.79
2019-04-29T10:36:20.499Z,13.78
2019-04-29T10:37:31.320Z,13.76
2019-04-29T10:38:40.493Z,13.75
2019-04-29T10:40:10.532Z,13.74
2019-04-29T10:41:19.412Z,13.76
2019-04-29T10:42:38.514Z,13.74
2019-04-29T10:43:53.626Z,13.72
2019-04-29T10:45:00.721Z,13.72
2019-04-29T10:46:20.827Z,13.70
2019-04-29T10:47:40.902Z,13.63
2019-04-29T10:48:53.727Z,13.64
2019-04-29T10:50:03.641Z,13.61
2019-04-29T10:51:13.612Z,13.62
2019-04-29T10:52:21.805Z,13.62
2019-04-29T10:53:29.864Z,13.63
2019-04-29T10:54:38.000Z,13.64
2019-04-29T10:55:46.272Z,13.65
2019-04-29T10:56:54.320Z,13.67
2019-04-29T10:58:02.522Z,13.67
2019-04-29T10:59:11.158Z,13.65
2019-04-29T11:00:25.237Z,13.66
2019-04-29T11:02:18.379Z,13.66
2019-04-29T11:03:26.397Z,13.65
2019-04-29T11:04:36.084Z,13.63
2019-04-29T11:05:59.869Z,13.63
2019-04-29T11:06:56.812Z,13.62
2019-04-29T11:08:07.376Z,13.59
2019-04-29T11:09:17.051Z,13.58
2019-04-29T11:10:27.252Z,13.53
2019-04-29T11:11:36.002Z,13.51
2019-04-29T11:12:43.866Z,13.52
2019-04-29T11:13:52.547Z,13.50
2019-04-29T11:15:01.668Z,13.50
2019-04-29T11:16:11.156Z,13.48
2019-04-29T11:17:23.181Z,13.48
2019-04-29T11:18:31.212Z,13.46
2019-04-29T11:19:41.369Z,13.44
2019-04-29T11:20:53.713Z,13.45
2019-04-29T11:22:02.149Z,13.45
2019-04-29T11:23:18.054Z,13.42
2019-04-29T11:24:42.993Z,13.41
2019-04-29T11:25:54.494Z,13.38
2019-04-29T11:27:12.087Z,13.38
2019-04-29T11:28:17.747Z,13.36
2019-04-29T11:29:27.185Z,13.33
2019-04-29T11:30:39.521Z,13.34
2019-04-29T11:31:49.131Z,13.34
2019-04-29T11:33:14.952Z,13.35
2019-04-29T11:34:27.472Z,13.34
2019-04-29T11:35:36.965Z,13.33
2019-04-29T11:36:44.919Z,13.32
2019-04-29T11:37:55.011Z,13.33
2019-04-29T11:39:02.643Z,13.32
2019-04-29T11:40:11.381Z,13.30
2019-04-29T11:41:19.951Z,13.32
2019-04-29T11:42:31.832Z,13.34
2019-04-29T11:43:39.137Z,13.33
2019-04-29T11:44:47.164Z,13.30
2019-04-29T11:45:56.802Z,13.31
2019-04-29T11:47:04.789Z,13.27
2019-04-29T11:48:13.636Z,13.30
2019-04-29T11:49:23.136Z,13.30
2019-04-29T11:50:45.232Z,13.33
2019-04-29T11:52:08.409Z,13.35
2019-04-29T11:53:02.620Z,13.38
2019-04-29T11:54:12.387Z,13.38
2019-04-29T11:55:20.719Z,13.37
2019-04-29T11:56:28.916Z,13.39
2019-04-29T11:57:41.107Z,13.37
2019-04-29T11:59:06.221Z,13.38
2019-04-29T12:00:18.374Z,13.36
2019-04-29T12:01:38.711Z,13.38
2019-04-29T12:02:54.376Z,13.36
2019-04-29T12:04:10.754Z,13.37
2019-04-29T12:05:26.386Z,13.37
2019-04-29T12:06:34.490Z,13.35
2019-04-29T12:07:42.583Z,13.33
2019-04-29T12:08:53.379Z,13.32
2019-04-29T12:10:02.234Z,13.34
2019-04-29T12:11:10.554Z,13.35
2019-04-29T12:12:19.001Z,13.35
2019-04-29T12:13:45.372Z,13.35
2019-04-29T12:14:53.709Z,13.37
2019-04-29T12:16:12.203Z,13.34
2019-04-29T12:17:39.981Z,13.34
2019-04-29T12:18:52.355Z,13.35
2019-04-29T12:20:01.806Z,13.28
2019-04-29T12:21:13.888Z,13.30
2019-04-29T12:22:30.106Z,13.27
2019-04-29T12:23:31.732Z,13.29
2019-04-29T12:24:39.760Z,13.28
2019-04-29T12:25:47.992Z,13.30
2019-04-29T12:26:56.340Z,13.31
2019-04-29T12:28:18.760Z,13.32
2019-04-29T12:29:18.394Z,13.33
2019-04-29T12:30:29.803Z,13.33
2019-04-29T12:31:49.270Z,13.32
2019-04-29T12:33:01.382Z,13.29
2019-04-29T12:34:11.948Z,13.30
2019-04-29T12:35:30.148Z,13.31
2019-04-29T12:36:55.029Z,13.30
2019-04-29T12:38:00.673Z,13.28
2019-04-29T12:39:10.472Z,13.28
2019-04-29T12:40:36.242Z,13.30
2019-04-29T12:41:49.365Z,13.30
2019-04-29T12:43:17.392Z,13.29
2019-04-29T12:44:35.026Z,13.29
2019-04-29T12:45:36.764Z,13.27
2019-04-29T12:46:46.419Z,13.26
2019-04-29T12:47:54.568Z,13.27
2019-04-29T12:49:03.514Z,13.24
2019-04-29T12:50:12.267Z,13.25
2019-04-29T12:51:20.115Z,13.27
2019-04-29T12:52:28.773Z,13.27
2019-04-29T12:53:36.870Z,13.28
2019-04-29T12:54:46.127Z,13.29
2019-04-29T12:55:56.201Z,13.31
2019-04-29T12:57:04.438Z,13.33
2019-04-29T12:58:12.440Z,13.33
2019-04-29T12:59:20.763Z,13.35
2019-04-29T13:00:30.907Z,13.36
2019-04-29T13:01:59.572Z,13.38
2019-04-29T13:03:08.515Z,13.37
2019-04-29T13:04:30.109Z,13.39
2019-04-29T13:05:57.583Z,13.40
2019-04-29T13:06:58.707Z,13.38
2019-04-29T13:08:08.919Z,13.37
2019-04-29T13:09:34.975Z,13.35
2019-04-29T13:10:50.482Z,13.36
2019-04-29T13:12:17.725Z,13.38
2019-04-29T13:13:09.100Z,13.37
2019-04-29T13:14:17.282Z,13.38
2019-04-29T13:15:33.317Z,13.37
2019-04-29T13:16:45.154Z,13.33
2019-04-29T13:18:03.550Z,13.34
2019-04-29T13:19:25.021Z,13.33
2019-04-29T13:20:33.723Z,13.34
2019-04-29T13:21:41.813Z,13.32
2019-04-29T13:22:49.929Z,13.29
2019-04-29T13:24:12.521Z,13.25
2019-04-29T13:25:09.376Z,13.24
2019-04-29T13:26:27.790Z,13.22
2019-04-29T13:27:27.195Z,13.25
2019-04-29T13:28:51.800Z,13.22
2019-04-29T13:29:44.871Z,13.24
2019-04-29T13:30:56.860Z,13.26
2019-04-29T13:32:02.874Z,13.30
2019-04-29T13:33:16.642Z,13.29
2019-04-29T13:34:24.579Z,13.29
2019-04-29T13:35:32.055Z,13.33
2019-04-29T13:36:40.028Z,13.31
2019-04-29T13:37:47.865Z,13.29
2019-04-29T13:38:56.277Z,13.31
2019-04-29T13:40:05.973Z,13.33
2019-04-29T13:41:14.371Z,13.33
2019-04-29T13:42:25.313Z,13.31
2019-04-29T13:43:35.549Z,13.31
2019-04-29T13:45:04.507Z,13.30
2019-04-29T13:46:13.051Z,13.29
2019-04-29T13:47:28.395Z,13.30
2019-04-29T13:48:55.916Z,13.29
2019-04-29T13:50:17.162Z,13.26
2019-04-29T13:51:34.458Z,13.25
2019-04-29T13:52:28.817Z,13.23
2019-04-29T13:53:36.821Z,13.21
2019-04-29T13:54:44.752Z,13.20
2019-04-29T13:56:10.500Z,13.21
2019-04-29T13:57:09.374Z,13.22
2019-04-29T13:58:13.045Z,13.21
2019-04-29T13:59:25.369Z,13.20
2019-04-29T14:00:37.842Z,13.21
2019-04-29T14:02:07.276Z,13.24
2019-04-29T14:03:14.455Z,13.23
2019-04-29T14:04:33.358Z,13.25
2019-04-29T14:05:42.810Z,13.26
2019-04-29T14:06:57.027Z,13.27
2019-04-29T14:08:00.860Z,13.29
2019-04-29T14:09:10.548Z,13.31
2019-04-29T14:10:18.966Z,13.30
2019-04-29T14:11:27.715Z,13.29
2019-04-29T14:12:48.453Z,13.24
2019-04-29T14:13:48.376Z,13.27
2019-04-29T14:14:58.574Z,13.27
2019-04-29T14:16:07.787Z,13.30
2019-04-29T14:17:25.906Z,13.31
2019-04-29T14:18:25.221Z,13.31
2019-04-29T14:19:40.901Z,13.29
2019-04-29T14:20:47.409Z,13.30
2019-04-29T14:21:53.993Z,13.29
2019-04-29T14:23:02.133Z,13.28
2019-04-29T14:24:10.317Z,13.27
2019-04-29T14:25:18.394Z,13.29
2019-04-29T14:26:29.277Z,13.29
2019-04-29T14:27:35.859Z,13.30
2019-04-29T14:28:43.954Z,13.31
2019-04-29T14:29:52.466Z,13.28
2019-04-29T14:31:01.105Z,13.27
2019-04-29T14:32:09.354Z,13.29
2019-04-29T14:33:24.067Z,13.31
2019-04-29T14:34:36.757Z,13.30
2019-04-29T14:35:48.181Z,13.29
2019-04-29T14:37:18.288Z,13.30
2019-04-29T14:38:06.865Z,13.31
2019-04-29T14:39:17.588Z,13.33
2019-04-29T14:40:24.809Z,13.30
2019-04-29T14:41:34.660Z,13.33
2019-04-29T14:42:57.974Z,13.33
2019-04-29T14:44:09.339Z,13.33
2019-04-29T14:45:28.089Z,13.35
2019-04-29T14:46:38.690Z,13.30
2019-04-29T14:48:04.865Z,13.33
2019-04-29T14:49:20.949Z,13.32
2019-04-29T14:50:29.353Z,13.34
2019-04-29T14:51:38.056Z,13.35
2019-04-29T14:52:49.333Z,13.34
2019-04-29T14:53:57.283Z,13.32
2019-04-29T14:55:08.139Z,13.29
2019-04-29T14:56:16.332Z,13.29
2019-04-29T14:57:24.178Z,13.32
2019-04-29T14:58:32.213Z,13.28
2019-04-29T14:59:40.598Z,13.26
2019-04-29T15:00:51.302Z,13.27
2019-04-29T15:02:01.372Z,13.24
2019-04-29T15:03:09.581Z,13.25
2019-04-29T15:04:19.348Z,13.28